EGXE - Leeming
Distance from station: E 5mi, 14km
Updated: 04/23/2018 8:50pm
Mostly Cloudy
Mostly Cloudy
 Wind from SW
Wind: SW 13 mph , 20 km/h
Temperature: 50°F , 10°C
Wind Chill: 45°F , 7°C
Dew Point: 41°F , 5°C
Humidity: 71%
Barometer: 29.8 inHg , 1009 hPa
Clouds: Mostly Cloudy
Visibility: 6 miles , 10 km
Cloud details: Mostly Cloudy 2300 ft
2018/04/24 03:50 EGXE 240350Z AUTO 23011KT 9999 BKN023/// 10/05 Q1009